Wimbledon, North Dakota
Current Conditions -  °F | °C
As of 6:56 PM on Friday 31 Oct 2014 (Local Time) from KJMS Reporting Station
Clear Clear  
Wind Chill: 23°   Ceiling: Unl
Heat Index: 32°   Visibility: 10mi
Dew Point: 18°   Wind: 12mph
Humidity: 56%   Direction: 150°SSE
Pressure: 30.32"   Gusts: NA
Location:  47.17°N, 98.46°W
Report Text: KJMS 312356Z AUTO 15010KT 10SM CLR 00/M08 A3032 RMK AO2 SLP293 T00001078 10039 20000 56020
Loading
Personal Weather Stations






























Interactive Weather Map
Tropical Storm Tracking
New forecast layout! Learn more

10-Day Weather Forecast

Advertisements
Track Severe Weather on mobile